Staunton, VA

10:01 AM EDT on August 17, 2017 (GMT -0400)
Shenandoah Valley Regional

Weather History for KSHD - January, 2014

Change the Weather History Date:

Monday, January 6, 2014

  Actual Average Record
Temperature  
Mean Temperature 28 °F -  
Max Temperature 50 °F 46 °F 69 °F (1998)
Min Temperature 4 °F 27 °F 4 °F (2014)
Degree Days  
Heating Degree Days 38    
Moisture  
Dew Point 15 °F    
Average Humidity 54    
Maximum Humidity 92    
Minimum Humidity 32    
Precipitation  
Precipitation 0.01 in - - ()
Sea Level Pressure  
Sea Level Pressure 29.75 in    
Wind  
Wind Speed 11 mph (West)    
Max Wind Speed 22 mph    
Max Gust Speed 31 mph    
Visibility 10 miles    
Events Rain    
Averages and records for this station are not official NWS values.
T = Trace of Precipitation, MM = Missing Value Source: NWS Daily Summary

Daily Weather History Graph

Daily Weather History Graph

Search for Another Location

Airport or City:

Trip Planner

Search our weather history database for the weather conditions in past years. The results will help you decide how hot, cold, wet, or windy it might be!

Date:

Astronomy

Jan. 06, 2014 Rise Set
Actual Time 7:32 AM EST 5:10 PM EST
Civil Twilight 7:03 AM EST 5:39 PM EST
Nautical Twilight 6:30 AM EST 6:12 PM EST
Astronomical Twilight 5:58 AM EST 6:44 PM EST
Moon 10:52 AM EST (1/6) 11:36 PM EST (1/6)
Length of Visible Light 10h 36m
Length of Day
9h 37m
Waxing Crescent, 34% of the Moon is Illuminated
Jan 6
Waxing Crescent
Jan 7
First Quarter
Jan 15
Full
Jan 24
Last Quarter
Jan 30
New

Hourly Weather History & Observations

Time (EST) Temp. Windchill Dew Point Humidity Pressure Visibility Wind Dir Wind Speed Gust Speed Precip Events Conditions
12:15 AM 40.5 °F 37.3 °F 38.3 °F 92% 29.65 in 10.0 mi WSW 4.6 mph - N/A   Scattered Clouds
12:35 AM 41.4 °F 38.4 °F 39.2 °F 92% 29.63 in 10.0 mi SSW 4.6 mph - N/A   Mostly Cloudy
12:55 AM 41.9 °F 38.2 °F 39.7 °F 92% 29.62 in 10.0 mi SW 5.8 mph - N/A   Mostly Cloudy
1:15 AM 46.4 °F 41.9 °F 41.4 °F 83% 29.61 in 10.0 mi SSW 9.2 mph - N/A   Overcast
1:35 AM 47.3 °F - 41.5 °F 80% 29.58 in 10.0 mi SSW 5.8 mph - N/A   Overcast
1:55 AM 48.2 °F - 41.9 °F 79% 29.57 in 10.0 mi SSW 11.5 mph - N/A   Drizzle
2:15 AM 48.2 °F - 42.8 °F 82% 29.57 in 10.0 mi SW 11.5 mph 16.1 mph N/A   Overcast
2:35 AM 49.1 °F - 45.0 °F 86% 29.56 in 7.0 mi SSW 15.0 mph 19.6 mph N/A   Drizzle
2:55 AM 49.8 °F - 45.3 °F 84% 29.54 in 10.0 mi SSW 11.5 mph 20.7 mph N/A   Overcast
3:15 AM 49.3 °F - 44.8 °F 84% 29.53 in 10.0 mi SW 8.1 mph - N/A   Overcast
3:35 AM 49.1 °F - 44.8 °F 85% 29.52 in 10.0 mi SW 6.9 mph - N/A   Overcast
3:55 AM 50.0 °F - 45.1 °F 83% 29.50 in 10.0 mi SW 8.1 mph 16.1 mph N/A   Overcast
4:15 AM 49.5 °F - 44.8 °F 84% 29.51 in 10.0 mi SW 13.8 mph 17.3 mph N/A   Overcast
4:35 AM 48.6 °F - 44.6 °F 86% 29.53 in 10.0 mi SW 11.5 mph 17.3 mph N/A Rain Light Rain
4:55 AM 47.8 °F - 43.3 °F 84% 29.54 in 10.0 mi SW 19.6 mph 28.8 mph N/A Rain Light Rain
5:15 AM 46.2 °F 41.7 °F 39.6 °F 78% 29.56 in 10.0 mi SW 9.2 mph 27.6 mph N/A Rain Light Rain
5:35 AM 45.5 °F 42.5 °F 40.3 °F 82% 29.57 in 10.0 mi SW 5.8 mph - N/A   Overcast
5:55 AM 44.1 °F 40.8 °F 38.5 °F 81% 29.57 in 10.0 mi NW 5.8 mph - N/A   Overcast
6:15 AM 44.6 °F 39.7 °F 36.9 °F 74% 29.59 in 10.0 mi WSW 9.2 mph - N/A   Overcast
6:35 AM 44.1 °F 37.7 °F 32.0 °F 63% 29.59 in 10.0 mi West 12.7 mph 21.9 mph N/A   Overcast
6:55 AM 43.0 °F 35.7 °F 32.0 °F 65% 29.59 in 10.0 mi WSW 15.0 mph - N/A   Overcast
7:15 AM 41.9 °F 35.9 °F 30.9 °F 65% 29.59 in 10.0 mi SW 10.4 mph - N/A   Overcast
7:35 AM 41.0 °F 33.9 °F 29.5 °F 64% 29.62 in 10.0 mi WSW 12.7 mph - N/A   Overcast
7:55 AM 41.0 °F 33.9 °F 28.2 °F 60% 29.63 in 10.0 mi West 12.7 mph 20.7 mph N/A   Overcast
8:15 AM 39.7 °F 33.2 °F 27.0 °F 60% 29.65 in 10.0 mi West 10.4 mph 19.6 mph N/A   Overcast
8:35 AM 38.5 °F 31.6 °F 24.4 °F 57% 29.67 in 10.0 mi West 10.4 mph 17.3 mph N/A   Overcast
8:55 AM 37.4 °F 28.9 °F 24.3 °F 59% 29.69 in 10.0 mi NW 13.8 mph - N/A   Overcast
9:15 AM 36.0 °F 26.7 °F 22.5 °F 58% 29.71 in 10.0 mi NW 15.0 mph 20.7 mph N/A   Mostly Cloudy
9:35 AM 35.8 °F 27.8 °F 21.2 °F 55% 29.72 in 10.0 mi WNW 11.5 mph 19.6 mph N/A   Scattered Clouds
9:55 AM 36.0 °F 26.7 °F 20.3 °F 53% 29.72 in 10.0 mi NW 15.0 mph 21.9 mph N/A   Scattered Clouds
10:15 AM 35.4 °F 25.6 °F 19.4 °F 52% 29.73 in 10.0 mi WNW 16.1 mph 19.6 mph N/A   Mostly Cloudy
10:35 AM 34.7 °F 26.4 °F 16.5 °F 48% 29.73 in 10.0 mi West 11.5 mph 21.9 mph N/A   Scattered Clouds
10:55 AM 34.5 °F 23.8 °F 16.5 °F 48% 29.73 in 10.0 mi WNW 18.4 mph 23.0 mph N/A   Scattered Clouds
11:15 AM 33.3 °F 21.8 °F 14.5 °F 46% 29.73 in 10.0 mi WNW 19.6 mph 24.2 mph N/A   Scattered Clouds
11:35 AM 32.9 °F 23.2 °F 14.5 °F 47% 29.72 in 10.0 mi WNW 13.8 mph 23.0 mph N/A   Mostly Cloudy
11:55 AM 32.7 °F 21.8 °F 14.5 °F 47% 29.72 in 10.0 mi WNW 17.3 mph - N/A   Overcast
12:15 PM 34.0 °F 25.5 °F 14.9 °F 46% 29.71 in 10.0 mi WNW 11.5 mph - N/A   Scattered Clouds
12:35 PM 34.7 °F 25.1 °F 13.5 °F 42% 29.71 in 10.0 mi West 15.0 mph 23.0 mph N/A   Mostly Cloudy
12:55 PM 33.8 °F 23.9 °F 12.0 °F 41% 29.71 in 10.0 mi WNW 15.0 mph 25.3 mph N/A   Scattered Clouds
1:15 PM 34.3 °F 25.9 °F 12.6 °F 41% 29.70 in 10.0 mi WNW 11.5 mph 17.3 mph N/A   Scattered Clouds
1:35 PM 33.8 °F 23.5 °F 10.8 °F 38% 29.70 in 10.0 mi WNW 16.1 mph 20.7 mph N/A   Scattered Clouds
1:55 PM 32.5 °F 20.2 °F 10.6 °F 40% 29.71 in 10.0 mi WNW 21.9 mph 26.5 mph N/A   Mostly Cloudy
2:15 PM 32.7 °F 22.1 °F 10.8 °F 40% 29.72 in 10.0 mi WNW 16.1 mph 24.2 mph N/A   Mostly Cloudy
2:35 PM 32.0 °F 21.6 °F 9.7 °F 39% 29.73 in 10.0 mi WNW 15.0 mph 20.7 mph N/A   Mostly Cloudy
2:55 PM 29.3 °F 18.2 °F 9.7 °F 44% 29.74 in 10.0 mi WNW 15.0 mph 21.9 mph N/A   Mostly Cloudy
3:15 PM 29.3 °F 18.2 °F 9.5 °F 44% 29.76 in 10.0 mi WNW 15.0 mph 18.4 mph N/A   Mostly Cloudy
3:35 PM 28.9 °F 18.2 °F 7.0 °F 40% 29.77 in 10.0 mi West 13.8 mph 21.9 mph N/A   Mostly Cloudy
3:55 PM 28.6 °F 17.7 °F 5.0 °F 37% 29.78 in 10.0 mi West 13.8 mph 25.3 mph N/A   Mostly Cloudy
4:15 PM 27.5 °F 15.4 °F 5.4 °F 39% 29.79 in 10.0 mi WNW 16.1 mph 23.0 mph N/A   Overcast
4:35 PM 26.6 °F 13.8 °F 5.7 °F 41% 29.81 in 10.0 mi WNW 17.3 mph 23.0 mph N/A   Mostly Cloudy
4:55 PM 23.4 °F 8.4 °F 1.8 °F 39% 29.82 in 10.0 mi West 20.7 mph 29.9 mph N/A   Overcast
5:15 PM 21.6 °F 8.8 °F -0.9 °F 37% 29.84 in 10.0 mi West 13.8 mph 23.0 mph N/A   Scattered Clouds
5:35 PM 20.3 °F 5.7 °F -1.7 °F 38% 29.85 in 10.0 mi West 17.3 mph 27.6 mph N/A   Clear
5:55 PM 18.7 °F 1.9 °F -5.3 °F 35% 29.86 in 10.0 mi WNW 21.9 mph 31.1 mph N/A   Clear
6:15 PM 17.2 °F 0.8 °F -7.8 °F 33% 29.89 in 10.0 mi West 19.6 mph 27.6 mph N/A   Clear
6:35 PM 15.8 °F 2.1 °F -7.1 °F 36% 29.93 in 10.0 mi West 12.7 mph 23.0 mph N/A   Clear
6:55 PM 14.7 °F 1.4 °F -7.4 °F 37% 29.95 in 10.0 mi West 11.5 mph 19.6 mph N/A   Clear
7:15 PM 13.6 °F 1.6 °F -7.4 °F 39% 29.95 in 10.0 mi West 9.2 mph 17.3 mph N/A   Scattered Clouds
7:35 PM 12.2 °F -4.3 °F -11.4 °F 34% 29.97 in 10.0 mi WNW 16.1 mph 24.2 mph N/A   Clear
7:55 PM 11.3 °F -6.0 °F -13.7 °F 32% 29.98 in 10.0 mi WNW 17.3 mph 29.9 mph N/A   Clear
8:15 PM 10.8 °F -6.2 °F -12.5 °F 35% 29.99 in 10.0 mi WNW 16.1 mph 24.2 mph N/A   Clear
8:35 PM 10.2 °F -7.4 °F -12.1 °F 36% 30.00 in 10.0 mi WNW 17.3 mph 21.9 mph N/A   Clear
8:55 PM 9.7 °F -3.3 °F -12.1 °F 37% 30.01 in 10.0 mi West 9.2 mph 19.6 mph N/A   Clear
9:15 PM 8.6 °F -10.0 °F -15.0 °F 34% 30.02 in 10.0 mi WNW 18.4 mph 27.6 mph N/A   Clear
9:35 PM 8.1 °F -8.4 °F -15.2 °F 34% 30.03 in 10.0 mi WNW 13.8 mph 20.7 mph N/A   Clear
9:55 PM 7.5 °F -6.9 °F -15.7 °F 34% 30.05 in 10.0 mi WNW 10.4 mph 20.7 mph N/A   Clear
10:15 PM 7.2 °F -4.3 °F -15.5 °F 35% 30.05 in 10.0 mi West 6.9 mph - N/A   Clear
10:35 PM 6.6 °F -3.7 °F -11.7 °F 43% 30.06 in 10.0 mi West 5.8 mph - N/A   Clear
10:55 PM 6.1 °F -6.8 °F -11.6 °F 44% 30.07 in 10.0 mi West 8.1 mph - N/A   Scattered Clouds
11:15 PM 5.9 °F -5.8 °F -13.0 °F 42% 30.06 in 10.0 mi West 6.9 mph - N/A   Scattered Clouds
11:35 PM 5.5 °F -9.3 °F -13.9 °F 41% 30.06 in 10.0 mi West 10.4 mph 16.1 mph N/A   Clear
11:55 PM 4.6 °F -11.3 °F -16.6 °F 37% 30.07 in 10.0 mi West 11.5 mph 18.4 mph N/A   Clear